Albert, Oklahoma
Current Conditions -  °F | °C
As of 1:55 AM on Friday 19 Dec 2014 (Local Time) from KOJA Reporting Station
Haze Haze  
Wind Chill: 31°   Ceiling: 700
Heat Index: 36°   Visibility: 4mi
Dew Point: 36°   Wind: 6mph
Humidity: 100%   Direction: 40°NE
Pressure: 30.2"   Gusts: NA
Location:  35.23°N, 98.41°W
Report Text: KOJA 190755Z AUTO 04005KT 4SM BR BKN007 OVC024 02/02 A3020 RMK AO2
Loading
Personal Weather Stations






























Interactive Weather Map New forecast layout! Learn more

10-Day Weather Forecast

Advertisements
Track Severe Weather on mobile